Metar del Interior

METAR SGME 201800Z NIL=
METAR SGLV 201800Z 36003KT 9999 SCT033 BKN070 35/16 Q1008=
METAR SGPJ 201800Z 36005KT 9999 SCT020 BKN070 25/23 Q1014=
METAR SGPC 201800Z 13008KT 9999 SCT033 40/19 Q1007=
METAR SGCO 201800Z 00000KT 9999 SCT040 39/20 Q1009=
METAR SGSP 201800Z 36002KT 9999 SCT033 36/20 Q1006=
METAR SGGR 201800Z 05006KT 9999 SCT033 34/21 Q1010=
METAR SGVR 201800Z 36005KT 9999 SCT040 38/24 Q1009=
METAR SGPI 201800Z 36006KT 9999 SCT027 38/18 Q1019=
METAR SGSJ 201800Z 07004KT 9999 BKN027 37/24 Q1004=

TAF

TAF SGAS 200950Z 2012/2112 05005KT CAVOK TX39/2019Z TN25/2109Z BECMG 2015/2018 34010KT 9999 BKN033 FEW040TCU PROB30 2021/2023 7000 TS SHRA BKN027 FEW040CB BECMG 2103/2106 06005KT 9999 SCT033=
TAF SGES 200950Z 2012/2112 07005KT CAVOK TX38/2019Z TN24/2109Z BECMG 2015/2018 04010KT 9999 BKN033 PROB30 2020/2023 8000 SHRA BKN027 FEW040TCU BECMG 2103/2106 09005KT CAVOK=
TAF SGEN 200950Z 2012/2112 06005KT CAVOK TX38/2019Z TN26/2109Z BECMG 2015/2018 07008KT 9999 BKN030 PROB30 2020/2023 8000 SHRA BKN027 FEW040TCU BECMG 09005KT CAVOK=
TAF SGCO 200950Z 2012/2112 09005KT CAVOK TX38/2019Z TN27/2109Z BECMG 2014/2017 05010KT 9999 SCT033 PROB30 2018/2021 8000 TS SHRA BKN027 FEW040CB BECMG 2103/2106 14005KT CAVOK=

La siguiente información es orientativa, no constituyendo documentación de vuelo. Para disponer de la misma se deberá solicitar a la Oficina Vigilancia Meteorológica (OVM) / Oficina ARO/AIS (Aeronautical Report Office/Aeronautical Information Service) del aeródromo de salida. Asimismo la Dirección de Meteorología e Hidrología no se responsabiliza por los perjuicios que pudieran ocasionarse a los "usuarios" y/o a terceros y/o a bienes, debido a las acciones o decisiones adoptadas o dejadas de adoptar en función de la información meteorológica suministrada.